Latest Coastal Weather Observations for Parndana

IDS60701

Issued at 4:15 am CST Friday 18 April 2014 (issued every 10 minutes, with the page automatically refreshed every 10 minutes)

About coastal observations | Map of coastal stations | Coastal observations for SA | Marine services | Other Formats
Station Details ID: 022843 Name: PARNDANA CFS AWS Lat: -35.79 Lon: 137.25 Height: 165.0 m
Data from the previous 72 hours. | See also: Recent months at Parndana
Date/Time
CST
Temp

°C
Wind Pressure Rain
since 9am
mm
Weather Cloud Vis
km
Sea
Height
m
Swell
Dir
 
Speed
knots
Gust
knots
hPa Trend Height
m
Period
s
Dir
18/04:00am 14.7 WNW 8 10 - - 0.2 - - - - - - -
18/03:30am 13.6 NW 7 10 - - 0.2 - - - - - - -
18/03:00am 12.9 NW 7 8 - - 0.2 - - - - - - -
18/02:30am 12.7 NW 7 8 - - 0.2 - - - - - - -
18/02:00am 12.9 NW 6 7 - - 0.2 - - - - - - -
18/01:30am 13.5 WNW 9 10 - - 0.2 - - - - - - -
18/01:00am 13.1 WNW 7 8 - - 0.2 - - - - - - -
18/12:30am 12.9 WNW 6 7 - - 0.2 - - - - - - -
18/12:00am 14.0 WNW 8 10 - - 0.2 - - - - - - -
 
Date/Time
CST
Temp

°C
Wind Pressure Rain
since 9am
mm
Weather Cloud Vis
km
Sea
Height
m
Swell
Dir
 
Speed
knots
Gust
knots
hPa Trend Height
m
Period
s
Dir
17/11:30pm 14.4 W 8 10 - - 0.2 - - - - - - -
17/11:00pm 14.5 W 8 9 - - 0.2 - - - - - - -
17/10:30pm 15.4 WNW 9 11 - - 0.2 - - - - - - -
17/10:00pm 15.9 NW 11 14 - - 0.2 - - - - - - -
17/09:30pm 16.3 NW 7 13 - - 0.2 - - - - - - -
17/09:00pm 16.1 NNW 7 9 - - 0.2 - - - - - - -
17/08:30pm 15.6 NNW 6 8 - - 0.2 - - - - - - -
17/08:00pm 15.3 NNW 7 9 - - 0.2 - - - - - - -
17/07:30pm 15.0 NW 5 7 - - 0.2 - - - - - - -
17/07:00pm 15.1 WNW 6 8 - - 0.2 - - - - - - -
17/06:30pm 15.5 NW 6 8 - - 0.2 - - - - - - -
17/06:00pm 16.6 WNW 6 9 - - 0.2 - - - - - - -
17/05:30pm 17.6 NW 7 9 - - 0.2 - - - - - - -
17/05:00pm 18.1 NW 10 13 - - 0.2 - - - - - - -
17/04:30pm 19.0 NNW 10 13 - - 0.2 - - - - - - -
17/04:00pm 19.2 NNW 10 13 - - 0.2 - - - - - - -
17/03:30pm 19.2 NW 12 16 - - 0.2 - - - - - - -
17/03:00pm 19.3 NNW 10 14 - - 0.2 - - - - - - -
17/02:30pm 20.5 NNW 9 11 - - 0.2 - - - - - - -
17/02:00pm 19.8 NNW 11 17 - - 0.2 - - - - - - -
17/01:30pm 20.6 NW 8 14 - - 0.0 - - - - - - -
17/01:00pm 20.7 NW 7 11 - - 0.0 - - - - - - -
17/12:30pm 19.4 NW 9 13 - - 0.0 - - - - - - -
17/12:00pm 20.6 NW 10 14 - - 0.0 - - - - - - -
17/11:30am 19.4 NW 9 13 - - 0.0 - - - - - - -
17/11:00am 19.0 WNW 8 12 - - 0.0 - - - - - - -
17/10:30am 18.4 WNW 9 13 - - 0.0 - - - - - - -
17/10:00am 17.5 N 7 9 - - 0.0 - - - - - - -
17/09:30am 16.2 NNW 5 7 - - 0.0 - - - - - - -
17/09:00am 14.8 NW 4 5 - - 0.2 - - - - - - -
17/08:30am 13.0 N 3 5 - - 0.2 - - - - - - -
17/08:00am 12.2 N 3 4 - - 0.2 - - - - - - -
17/07:30am 9.6 N 3 3 - - 0.2 - - - - - - -
17/07:00am 7.3 N 3 4 - - 0.2 - - - - - - -
17/06:30am 9.6 N 4 5 - - 0.2 - - - - - - -
17/06:00am 9.3 N 1 2 - - 0.2 - - - - - - -
17/05:30am 8.8 CALM 0 1 - - 0.2 - - - - - - -
17/05:00am 10.2 WSW 2 2 - - 0.2 - - - - - - -
17/04:30am 10.1 WSW 3 3 - - 0.2 - - - - - - -
17/04:00am 10.5 WSW 3 4 - - 0.2 - - - - - - -
17/03:30am 9.8 WSW 5 6 - - 0.2 - - - - - - -
17/03:00am 9.9 W 5 5 - - 0.2 - - - - - - -
17/02:30am 10.9 W 3 4 - - 0.2 - - - - - - -
17/02:00am 10.7 WSW 3 4 - - 0.2 - - - - - - -
17/01:30am 11.2 WSW 4 5 - - 0.2 - - - - - - -
17/01:00am 12.6 W 2 3 - - 0.2 - - - - - - -
17/12:30am 12.5 W 3 3 - - 0.2 - - - - - - -
17/12:00am 12.3 W 4 5 - - 0.2 - - - - - - -
 
Date/Time
CST
Temp

°C
Wind Pressure Rain
since 9am
mm
Weather Cloud Vis
km
Sea
Height
m
Swell
Dir
 
Speed
knots
Gust
knots
hPa Trend Height
m
Period
s
Dir
16/11:30pm 13.1 W 4 4 - - 0.2 - - - - - - -
16/11:00pm 13.1 W 4 4 - - 0.2 - - - - - - -
16/10:30pm 13.1 WNW 4 4 - - 0.2 - - - - - - -
16/10:00pm 12.9 NNW 4 5 - - 0.2 - - - - - - -
16/09:30pm 13.6 NNW 5 6 - - 0.2 - - - - - - -
16/09:00pm 13.7 N 4 5 - - 0.2 - - - - - - -
16/08:30pm 13.8 N 4 5 - - 0.2 - - - - - - -
16/08:00pm 13.9 NW 4 5 - - 0.2 - - - - - - -
16/07:30pm 14.4 W 3 3 - - 0.2 - - - - - - -
16/07:00pm 14.6 W 7 8 - - 0.2 - - - - - - -
16/06:30pm 14.8 WNW 5 6 - - 0.2 - - - - - - -
16/06:00pm 16.2 NW 5 8 - - 0.2 - - - - - - -
16/05:30pm 18.3 WNW 5 8 - - 0.2 - - - - - - -
16/05:00pm 19.5 WNW 6 11 - - 0.2 - - - - - - -
16/04:30pm 19.4 WNW 9 13 - - 0.2 - - - - - - -
16/04:00pm 20.3 WNW 11 15 - - 0.2 - - - - - - -
16/03:30pm 20.6 WNW 13 19 - - 0.2 - - - - - - -
16/03:00pm 19.9 WNW 12 18 - - 0.2 - - - - - - -
16/02:30pm 21.4 WNW 11 16 - - 0.2 - - - - - - -
16/02:00pm 20.9 WNW 11 16 - - 0.2 - - - - - - -
16/01:30pm 20.6 NW 11 15 - - 0.2 - - - - - - -
16/01:00pm 19.5 WNW 11 14 - - 0.2 - - - - - - -
16/12:30pm 20.6 WNW 12 16 - - 0.2 - - - - - - -
16/12:00pm 19.3 NW 11 15 - - 0.2 - - - - - - -
16/11:30am 18.6 NW 11 14 - - 0.2 - - - - - - -
16/11:00am 19.6 NNW 9 14 - - 0.2 - - - - - - -
16/10:30am 19.4 NNW 9 13 - - 0.2 - - - - - - -
16/10:00am 18.5 N 10 14 - - 0.0 - - - - - - -
16/09:30am 17.1 NNW 5 7 - - 0.0 - - - - - - -
16/09:00am 15.4 NNW 5 8 - - 0.0 - - - - - - -
16/08:30am 14.0 NNW 4 5 - - 0.0 - - - - - - -
16/08:00am 12.8 N 5 6 - - 0.0 - - - - - - -
16/07:30am 10.4 NNW 5 6 - - 0.0 - - - - - - -
16/07:00am 10.8 N 5 5 - - 0.0 - - - - - - -
16/06:30am 11.0 N 5 6 - - 0.0 - - - - - - -
16/06:00am 10.7 N 5 6 - - 0.0 - - - - - - -
16/05:30am 9.0 N 6 6 - - 0.0 - - - - - - -
16/05:00am 9.3 N 4 5 - - 0.0 - - - - - - -
16/04:30am 10.6 NNW 3 4 - - 0.0 - - - - - - -
16/04:00am 8.3 WNW 3 4 - - 0.0 - - - - - - -
16/03:30am 10.7 ENE 3 4 - - 0.0 - - - - - - -
16/03:00am 8.9 ENE 1 2 - - 0.0 - - - - - - -
16/02:30am 11.1 ENE 3 4 - - 0.0 - - - - - - -
16/02:00am 9.4 CALM 0 2 - - 0.0 - - - - - - -
16/01:30am 10.2 CALM 0 2 - - 0.0 - - - - - - -
16/01:00am 9.5 S 1 2 - - 0.0 - - - - - - -
16/12:30am 10.6 S 1 2 - - 0.0 - - - - - - -
16/12:00am 9.3 SSW 2 3 - - 0.0 - - - - - - -
 
Date/Time
CST
Temp

°C
Wind Pressure Rain
since 9am
mm
Weather Cloud Vis
km
Sea
Height
m
Swell
Dir
 
Speed
knots
Gust
knots
hPa Trend Height
m
Period
s
Dir
15/11:30pm 9.1 SSW 3 3 - - 0.0 - - - - - - -
15/11:00pm 8.2 WSW 1 4 - - 0.0 - - - - - - -
15/10:30pm 9.8 CALM 0 0 - - 0.0 - - - - - - -
15/10:00pm 9.7 CALM 0 0 - - 0.0 - - - - - - -
15/09:30pm 10.3 CALM 0 0 - - 0.0 - - - - - - -
15/09:00pm 10.5 E 1 2 - - 0.0 - - - - - - -
15/08:30pm 10.1 E 1 2 - - 0.0 - - - - - - -
15/08:00pm 11.5 E 4 4 - - 0.0 - - - - - - -
15/07:30pm 12.0 E 4 4 - - 0.0 - - - - - - -
15/07:00pm 12.5 E 6 7 - - 0.0 - - - - - - -
15/06:30pm 13.3 E 6 7 - - 0.0 - - - - - - -
15/06:00pm 14.4 E 4 5 - - 0.0 - - - - - - -
15/05:30pm 15.8 E 6 8 - - 0.0 - - - - - - -
15/05:00pm 17.2 E 7 9 - - 0.0 - - - - - - -
15/04:30pm 18.0 ESE 8 11 - - 0.0 - - - - - - -
15/04:00pm 18.7 ESE 9 12 - - 0.0 - - - - - - -
15/03:30pm 19.0 ESE 8 11 - - 0.0 - - - - - - -
15/03:00pm 19.4 SE 7 10 - - 0.0 - - - - - - -
15/02:30pm 19.4 ESE 8 11 - - 0.0 - - - - - - -
15/02:00pm 20.4 E 7 12 - - 0.0 - - - - - - -
15/01:30pm 20.7 E 8 13 - - 0.0 - - - - - - -
15/01:00pm 20.9 ESE 7 13 - - 0.0 - - - - - - -
15/12:30pm 20.2 E 9 14 - - 0.0 - - - - - - -
15/12:00pm 19.9 ESE 9 15 - - 0.0 - - - - - - -
15/11:30am 19.6 ESE 9 15 - - 0.0 - - - - - - -
15/11:00am 18.8 ESE 10 15 - - 0.0 - - - - - - -
15/10:30am 17.8 ESE 9 12 - - 0.0 - - - - - - -
15/10:00am 16.3 SE 7 9 - - 0.0 - - - - - - -
15/09:30am 15.9 SE 9 12 - - 0.0 - - - - - - -
15/09:00am 15.8 ESE 8 11 - - 0.0 - - - - - - -
15/08:30am 14.7 ESE 7 9 - - 0.0 - - - - - - -
15/08:00am 13.3 SSE 5 7 - - 0.0 - - - - - - -
15/07:30am 12.4 SE 6 8 - - 0.0 - - - - - - -
15/07:00am 10.2 SE 5 6 - - 0.0 - - - - - - -
15/06:30am 10.5 ESE 6 7 - - 0.0 - - - - - - -
15/06:00am 10.2 SE 5 6 - - 0.0 - - - - - - -
15/05:30am 10.8 SSE 5 5 - - 0.0 - - - - - - -
15/05:00am 10.4 SSE 5 6 - - 0.0 - - - - - - -
15/04:30am 10.7 S 4 5 - - 0.0 - - - - - - -

Other Formats:

Comma delimited format used in spreadsheet applications
http://www.bom.gov.au/fwo/IDS60701/IDS60701.94807.axf

JavaScript Object Notation format (JSON) in row-major order
http://www.bom.gov.au/fwo/IDS60701/IDS60701.94807.json